createdAt,value
2017-12-11T00:00:56.155Z,5.5
2017-12-11T00:10:55.846Z,3.7
2017-12-11T00:20:56.147Z,3.5
2017-12-11T00:30:55.908Z,3.1
2017-12-11T00:40:55.600Z,2.3
2017-12-11T00:50:56.799Z,2.2
2017-12-11T01:00:55.544Z,2.5
2017-12-11T01:10:56.215Z,2.6
2017-12-11T01:20:56.147Z,2.4
2017-12-11T01:30:55.890Z,2.1
2017-12-11T01:40:55.588Z,2.3
2017-12-11T01:50:56.274Z,2.6
2017-12-11T02:00:56.004Z,2.5
2017-12-11T02:10:55.979Z,2.5
2017-12-11T02:20:55.834Z,2.4
2017-12-11T02:30:55.533Z,2.3
2017-12-11T02:40:56.235Z,2.1
2017-12-11T02:50:55.914Z,2.2
2017-12-11T03:00:55.849Z,2.2
2017-12-11T03:10:56.022Z,1.8
2017-12-11T03:20:55.975Z,2.1
2017-12-11T03:30:55.921Z,1.9
2017-12-11T03:40:55.948Z,1.9
2017-12-11T03:50:55.640Z,1.9
2017-12-11T04:00:56.496Z,1.6
2017-12-11T04:10:56.634Z,1.5
2017-12-11T04:20:56.607Z,1.5
2017-12-11T04:30:57.304Z,1.5
2017-12-11T04:40:55.997Z,1.7
2017-12-11T04:50:55.901Z,1.7
2017-12-11T05:00:55.784Z,1.7
2017-12-11T05:10:55.962Z,2.2
2017-12-11T05:20:55.796Z,2.0
2017-12-11T05:30:56.151Z,2.1
2017-12-11T05:40:55.872Z,2.3
2017-12-11T05:50:56.394Z,2.3
2017-12-11T06:00:56.484Z,2.4
2017-12-11T06:10:56.288Z,2.3
2017-12-11T06:20:56.630Z,2.8
2017-12-11T06:30:56.429Z,2.4
2017-12-11T06:40:56.817Z,2.2
2017-12-11T06:50:55.686Z,2.1
2017-12-11T07:00:56.346Z,2.6
2017-12-11T07:10:56.482Z,3.3
2017-12-11T07:20:56.456Z,2.8
2017-12-11T07:30:56.399Z,2.9
2017-12-11T07:40:56.918Z,4.3
2017-12-11T07:50:55.650Z,4.1
2017-12-11T08:00:57.013Z,3.0
2017-12-11T08:10:55.930Z,4.0
2017-12-11T08:20:56.075Z,3.5
2017-12-11T08:30:55.792Z,3.8
2017-12-11T08:40:56.644Z,3.0
2017-12-11T08:50:56.409Z,3.3
2017-12-11T09:00:56.196Z,2.7
2017-12-11T09:10:56.446Z,4.0
2017-12-11T09:20:56.641Z,2.8
2017-12-11T09:30:57.173Z,2.8
2017-12-11T09:40:55.900Z,3.3
2017-12-11T09:50:55.655Z,4.2
2017-12-11T10:00:56.436Z,3.6
2017-12-11T10:10:56.622Z,4.3
2017-12-11T10:20:56.452Z,5.1
2017-12-11T10:30:56.160Z,4.5
2017-12-11T10:40:56.416Z,4.5
2017-12-11T10:50:56.757Z,4.1
2017-12-11T11:00:56.481Z,4.6
2017-12-11T11:10:56.219Z,4.1
2017-12-11T11:20:56.190Z,4.1
2017-12-11T11:30:56.705Z,5.4
2017-12-11T11:40:56.570Z,5.9
2017-12-11T11:50:56.542Z,5.2
2017-12-11T12:00:56.177Z,4.6
2017-12-11T12:10:55.964Z,4.8
2017-12-11T12:20:56.292Z,5.1
2017-12-11T12:30:56.105Z,4.7
2017-12-11T12:40:56.100Z,4.6
2017-12-11T12:50:56.127Z,5.1
2017-12-11T13:00:56.022Z,5.1
2017-12-11T13:10:56.639Z,5.0
2017-12-11T13:20:56.903Z,4.7
2017-12-11T13:30:56.468Z,4.9
2017-12-11T13:40:57.065Z,5.1
2017-12-11T13:50:56.007Z,5.4
2017-12-11T14:00:55.788Z,5.4
2017-12-11T14:10:56.530Z,5.5
2017-12-11T14:20:56.895Z,5.7
2017-12-11T14:30:56.226Z,4.4
2017-12-11T14:40:56.259Z,4.5
2017-12-11T14:50:56.026Z,4.8
2017-12-11T15:00:56.105Z,5.8
2017-12-11T15:10:56.026Z,6.4
2017-12-11T15:20:56.733Z,6.3
2017-12-11T15:30:56.518Z,7.2
2017-12-11T15:40:56.261Z,7.0
2017-12-11T15:50:56.686Z,6.9
2017-12-11T16:00:56.442Z,6.2
2017-12-11T16:10:56.648Z,6.5
2017-12-11T16:20:56.622Z,5.7
2017-12-11T16:30:56.467Z,4.7
2017-12-11T16:40:56.278Z,5.2
2017-12-11T16:50:56.169Z,5.6
2017-12-11T17:00:56.374Z,5.5
2017-12-11T17:10:56.364Z,6.3
2017-12-11T17:20:56.485Z,5.7
2017-12-11T17:30:56.671Z,6.5
2017-12-11T17:40:56.420Z,6.4
2017-12-11T17:50:56.327Z,5.2
2017-12-11T18:00:56.034Z,4.8
2017-12-11T18:10:56.036Z,4.5
2017-12-11T18:20:56.261Z,4.9
2017-12-11T18:30:56.023Z,5.9
2017-12-11T18:40:56.237Z,7.1
2017-12-11T18:50:57.043Z,5.5
2017-12-11T19:00:55.802Z,5.1
2017-12-11T19:10:57.053Z,5.0
2017-12-11T19:20:56.358Z,5.5
2017-12-11T19:30:56.406Z,5.3
2017-12-11T19:40:56.374Z,5.2
2017-12-11T19:50:56.400Z,3.9
2017-12-11T20:00:56.857Z,3.6
2017-12-11T20:10:55.973Z,4.3
2017-12-11T20:20:56.575Z,3.3
2017-12-11T20:30:57.130Z,3.1
2017-12-11T20:40:56.691Z,4.6
2017-12-11T20:50:56.740Z,4.3
2017-12-11T21:00:56.716Z,4.6
2017-12-11T21:10:56.576Z,4.8
2017-12-11T21:20:57.057Z,4.7
2017-12-11T21:30:55.927Z,4.4
2017-12-11T21:40:55.676Z,5.0
2017-12-11T21:50:56.683Z,4.9
2017-12-11T22:00:56.615Z,4.9
2017-12-11T22:10:57.609Z,4.9
2017-12-11T22:20:56.452Z,4.1
2017-12-11T22:30:56.269Z,3.0
2017-12-11T22:40:56.246Z,3.5
2017-12-11T22:50:57.200Z,3.6
2017-12-11T23:00:56.015Z,3.4
2017-12-11T23:10:55.830Z,3.8
2017-12-11T23:20:55.852Z,3.3
2017-12-11T23:30:56.608Z,3.3
2017-12-11T23:40:56.672Z,3.8
2017-12-11T23:50:56.648Z,3.6
